Juanda International Airport
WARR : now visible

Airfield :











YOU CAN JOIN US ON...

 
LOGIN :

Register | Disclaimer

   EN    FR    IT 

 









Legend :    VFR   Marginal VFR   IFR   Intensive IFR   Very Intensive IFR
Visi :
Ceiling :
>= 8 km
>= 3000ft
5 to 8 km
1000 to 3000 ft
1500m to 5 km
500 to 1000 ft
800 to 1500m
200 to 500 ft
< 800m
< 200 ft
Symbols :   Thunderstorms  Fog  Heavy snow  Heavy precipitations  Wind > 20 kt






- Airport Elevation : 9 ft
- IATA code : SUB


WARR - Juanda International

CURRENT METAR :
  • 270300Z 15004KT 9999 FEW020 32/22 Q1013 NOSIG

EXPIRED METARs :
  • 270230Z VRB03KT 9999 FEW020 31/22 Q1013 NOSIG
  • 270200Z 23004KT 5000 HZ FEW020 30/23 Q1013 NOSIG METAR
  • 270130Z 25004KT 5000 HZ FEW020 27/22 Q1013 NOSIG
  • 270100Z 22004KT 5000 HZ FEW020 25/21 Q1013 NOSIG
  • 270030Z 27003KT 4000 HZ FEW020 24/22 Q1013 NOSIG

TAF TAF WARR
Valid from the 27 at 00:00 until the 28 at 00:00 UTC


262300Z 2700/2800 24005KT 5000 HZ SCT020
BECMG 2701/2703 09014KT 9999 NSW
BECMG 2714/2716 25006KT 4000 HZ
WAAF FIR / Asia



MET'MAP, your aeronautical weather chart ! - Copyright ORBIFLY December 2007 - Disclaimer

ORBIFLY MET'MAP TEAM :

Programming & Development : Alexandra Zaïnal
Concept & original design : Baudouin d'Aumeries
Assistance for programming : Marc-Olivier Méhu
Technical & hardware support : Manuel Goepfert

Contact : metmap@orbifly.com




SOURCES & CREDITS :

   NOAA       Earth
Advisory